Time;durP1;ratioP1;P1;durP2;ratioP2;P2;SDS_P1;SDS_P2;PMS_P1;PMS_P2;Temp;Humidity;BMP_temperature;BMP_pressure;BME280_temperature;BME280_humidity;BME280_pressure;Samples;Min_cycle;Max_cycle;Signal;HPM_P1;HPM_P2
2021/03/02 00:02:18;;;;;;;27.05;13.75;;;;;;;;;;6301860;28;20044;-78
2021/03/02 00:05:19;;;;;;;30.20;14.23;;;;;;;;;;6293554;28;20459;-79
2021/03/02 00:08:21;;;;;;;29.77;15.20;;;;;;;;;;6294181;28;20215;-77
2021/03/02 00:11:24;;;;;;;30.75;15.52;;;;;;;;;;6291962;28;20055;-77
2021/03/02 00:14:25;;;;;;;34.00;15.90;;;;;;;;;;6296249;28;20060;-77
2021/03/02 00:17:29;;;;;;;28.88;15.45;;;;;;;;;;6297171;28;20151;-77
2021/03/02 00:20:32;;;;;;;29.15;16.17;;;;;;;;;;6295419;28;20041;-78
2021/03/02 00:23:36;;;;;;;29.45;16.27;;;;;;;;;;6295673;28;20089;-76
2021/03/02 00:26:44;;;;;;;31.48;15.35;;;;;;;;;;6296338;28;20147;-75
2021/03/02 00:29:46;;;;;;;66.90;35.05;;;;;;;;;;6292143;28;20469;-78
2021/03/02 00:32:47;;;;;;;46.00;24.33;;;;;;;;;;6293398;28;20041;-77
2021/03/02 00:35:48;;;;;;;94.55;45.33;;;;;;;;;;6293540;28;20596;-77
2021/03/02 00:38:49;;;;;;;62.17;31.20;;;;;;;;;;6309060;28;20135;-77
2021/03/02 00:41:51;;;;;;;77.88;38.25;;;;;;;;;;6297937;28;20048;-75
2021/03/02 00:44:52;;;;;;;58.03;31.45;;;;;;;;;;6287814;28;20078;-77
2021/03/02 00:47:53;;;;;;;36.13;20.20;;;;;;;;;;6288479;28;20721;-76
2021/03/02 00:50:54;;;;;;;36.63;20.88;;;;;;;;;;6299414;28;20052;-76
2021/03/02 00:53:55;;;;;;;39.53;19.77;;;;;;;;;;6304337;28;20047;-76
2021/03/02 00:56:57;;;;;;;38.95;20.98;;;;;;;;;;6290639;28;20143;-76
2021/03/02 00:59:58;;;;;;;42.75;21.48;;;;;;;;;;6299800;28;20068;-76
2021/03/02 01:02:59;;;;;;;36.20;20.85;;;;;;;;;;6293723;28;20135;-76
2021/03/02 01:06:01;;;;;;;36.95;21.40;;;;;;;;;;6297344;28;20127;-76
2021/03/02 01:09:03;;;;;;;37.40;21.52;;;;;;;;;;6296433;28;20132;-77
2021/03/02 01:12:06;;;;;;;38.10;21.40;;;;;;;;;;6291882;28;20047;-77
2021/03/02 01:15:09;;;;;;;36.70;20.88;;;;;;;;;;6295542;28;20072;-77
2021/03/02 01:18:10;;;;;;;42.08;20.90;;;;;;;;;;6299704;28;20049;-76
2021/03/02 01:21:12;;;;;;;38.13;21.63;;;;;;;;;;6302469;28;20040;-77
2021/03/02 01:24:13;;;;;;;37.95;21.35;;;;;;;;;;6296266;28;20170;-78
2021/03/02 01:27:15;;;;;;;44.40;21.98;;;;;;;;;;6292780;28;20211;-76
2021/03/02 01:30:18;;;;;;;43.70;22.10;;;;;;;;;;6295398;28;20132;-77
2021/03/02 01:33:19;;;;;;;39.53;21.98;;;;;;;;;;6292135;28;20146;-77
2021/03/02 01:36:20;;;;;;;38.13;22.48;;;;;;;;;;6294676;28;20131;-77
2021/03/02 01:39:21;;;;;;;38.72;22.10;;;;;;;;;;6293451;28;20051;-79
2021/03/02 01:42:23;;;;;;;41.47;22.25;;;;;;;;;;6299404;28;20124;-77
2021/03/02 01:45:24;;;;;;;38.42;22.67;;;;;;;;;;6296231;28;20044;-77
2021/03/02 01:48:25;;;;;;;40.45;22.23;;;;;;;;;;6305803;28;20136;-77
2021/03/02 01:51:26;;;;;;;37.42;22.02;;;;;;;;;;6300224;28;20491;-77
2021/03/02 01:54:28;;;;;;;39.50;21.10;;;;;;;;;;6296471;28;20167;-77
2021/03/02 01:57:30;;;;;;;36.30;21.73;;;;;;;;;;6290275;28;20044;-76
2021/03/02 02:00:33;;;;;;;36.85;21.25;;;;;;;;;;6298727;28;20060;-76
2021/03/02 02:03:42;;;;;;;38.83;22.50;;;;;;;;;;6299187;28;20075;-76
2021/03/02 02:06:46;;;;;;;37.80;21.40;;;;;;;;;;6296141;28;20444;-76
2021/03/02 02:09:49;;;;;;;;;;;;;;;;;;6304758;28;20115;-76
2021/03/02 02:12:54;;;;;;;38.47;20.20;;;;;;;;;;6295303;28;19927;-76
2021/03/02 02:15:58;;;;;;;38.17;20.02;;;;;;;;;;6294671;28;20068;-76
2021/03/02 02:18:59;;;;;;;36.30;20.73;;;;;;;;;;6286818;28;20131;-77
2021/03/02 02:22:22;;;;;;;34.53;20.67;;;;;;;;;;6291817;28;20070;-77
2021/03/02 02:25:29;;;;;;;36.30;19.75;;;;;;;;;;6291136;28;20045;-77
2021/03/02 02:28:32;;;;;;;37.88;20.25;;;;;;;;;;6292705;28;20048;-77
2021/03/02 02:31:34;;;;;;;44.93;21.57;;;;;;;;;;6292466;28;20131;-76
2021/03/02 02:34:37;;;;;;;38.42;19.50;;;;;;;;;;6291545;28;20455;-76
2021/03/02 02:37:38;;;;;;;34.65;19.95;;;;;;;;;;6286473;28;20077;-76
2021/03/02 02:40:40;;;;;;;38.45;19.80;;;;;;;;;;6291247;28;20140;-78
2021/03/02 02:43:42;;;;;;;36.63;20.05;;;;;;;;;;6290131;28;20406;-77
2021/03/02 02:46:43;;;;;;;40.42;19.98;;;;;;;;;;6291894;28;20051;-77
2021/03/02 02:49:46;;;;;;;36.55;18.80;;;;;;;;;;6292936;28;20506;-76
2021/03/02 02:52:47;;;;;;;34.47;19.73;;;;;;;;;;6286819;28;20074;-77
2021/03/02 02:55:53;;;;;;;36.72;19.92;;;;;;;;;;6289739;28;20132;-78
2021/03/02 02:59:01;;;;;;;32.58;19.00;;;;;;;;;;6290261;28;20158;-77
2021/03/02 03:02:04;;;;;;;32.33;18.60;;;;;;;;;;6290088;28;20072;-78
2021/03/02 03:05:08;;;;;;;31.58;20.15;;;;;;;;;;6290963;28;20485;-77
2021/03/02 03:08:13;;;;;;;35.50;20.00;;;;;;;;;;6288324;28;20051;-77
2021/03/02 03:11:15;;;;;;;34.30;19.67;;;;;;;;;;6288435;28;20127;-77
2021/03/02 03:14:19;;;;;;;36.28;19.60;;;;;;;;;;6301008;28;20123;-77
2021/03/02 03:17:21;;;;;;;38.20;19.27;;;;;;;;;;6295780;28;20036;-78
2021/03/02 03:20:23;;;;;;;36.92;19.67;;;;;;;;;;6290833;28;20123;-77
2021/03/02 03:23:25;;;;;;;34.50;19.50;;;;;;;;;;6294219;28;20068;-77
2021/03/02 03:26:30;;;;;;;39.30;19.27;;;;;;;;;;6297510;28;20056;-76
2021/03/02 03:29:32;;;;;;;35.80;19.95;;;;;;;;;;6288936;28;20052;-77
2021/03/02 03:32:34;;;;;;;38.33;20.10;;;;;;;;;;6293546;28;20487;-77
2021/03/02 03:35:36;;;;;;;36.78;20.05;;;;;;;;;;6292954;28;20091;-77
2021/03/02 03:38:37;;;;;;;36.58;20.23;;;;;;;;;;6282117;28;20129;-77
2021/03/02 03:41:39;;;;;;;35.10;19.42;;;;;;;;;;6289978;28;20460;-78
2021/03/02 03:44:41;;;;;;;33.22;19.85;;;;;;;;;;6290830;28;20123;-77
2021/03/02 03:47:42;;;;;;;37.17;20.13;;;;;;;;;;6289001;28;20059;-76
2021/03/02 03:50:43;;;;;;;35.80;19.85;;;;;;;;;;6287859;28;20131;-77
2021/03/02 03:53:45;;;;;;;37.25;19.83;;;;;;;;;;6289739;28;20052;-77
2021/03/02 03:56:47;;;;;;;33.88;18.92;;;;;;;;;;6289991;28;20048;-77
2021/03/02 03:59:49;;;;;;;32.90;19.52;;;;;;;;;;6287198;28;20047;-77
2021/03/02 04:02:50;;;;;;;34.10;19.70;;;;;;;;;;6287813;28;20128;-77
2021/03/02 04:05:51;;;;;;;35.85;19.05;;;;;;;;;;6297256;28;20149;-77
2021/03/02 04:08:52;;;;;;;35.28;19.67;;;;;;;;;;6296297;28;20041;-78
2021/03/02 04:11:54;;;;;;;33.92;19.58;;;;;;;;;;6285707;28;20068;-78
2021/03/02 04:14:56;;;;;;;41.38;19.85;;;;;;;;;;6297604;28;20045;-77
2021/03/02 04:17:58;;;;;;;34.95;20.35;;;;;;;;;;6296686;28;20131;-76
2021/03/02 04:20:59;;;;;;;41.10;20.75;;;;;;;;;;6293839;28;20801;-77
2021/03/02 04:24:00;;;;;;;36.78;19.80;;;;;;;;;;6298115;28;20036;-76
2021/03/02 04:27:01;;;;;;;34.95;19.35;;;;;;;;;;6292363;28;20076;-78
2021/03/02 04:30:04;;;;;;;35.35;20.35;;;;;;;;;;6294146;28;20132;-77
2021/03/02 04:33:06;;;;;;;33.72;19.77;;;;;;;;;;6295663;28;20128;-77
2021/03/02 04:36:08;;;;;;;37.03;20.27;;;;;;;;;;6294996;28;20090;-77
2021/03/02 04:39:09;;;;;;;38.00;19.73;;;;;;;;;;6292206;28;20422;-79
2021/03/02 04:42:10;;;;;;;31.42;19.92;;;;;;;;;;6294286;28;20119;-78
2021/03/02 04:45:14;;;;;;;36.97;19.25;;;;;;;;;;6295115;28;20036;-76
2021/03/02 04:48:15;;;;;;;35.42;19.08;;;;;;;;;;6298808;28;20566;-77
2021/03/02 04:51:16;;;;;;;33.95;19.10;;;;;;;;;;6300883;28;20123;-77
2021/03/02 04:54:17;;;;;;;35.30;18.88;;;;;;;;;;6290248;28;20080;-77
2021/03/02 04:57:18;;;;;;;32.95;17.77;;;;;;;;;;6295017;28;20072;-76
2021/03/02 05:00:21;;;;;;;35.78;18.63;;;;;;;;;;6301164;28;20065;-76
2021/03/02 05:03:22;;;;;;;39.85;18.55;;;;;;;;;;6308942;28;20040;-77
2021/03/02 05:06:23;;;;;;;33.63;18.15;;;;;;;;;;6292857;28;20044;-76
2021/03/02 05:09:24;;;;;;;38.00;18.67;;;;;;;;;;6298974;28;20127;-77
2021/03/02 05:12:25;;;;;;;35.92;18.52;;;;;;;;;;6296227;28;20055;-76
2021/03/02 05:15:27;;;;;;;36.97;19.10;;;;;;;;;;6297669;28;20055;-76
2021/03/02 05:18:28;;;;;;;38.85;19.38;;;;;;;;;;6298517;28;20467;-77
2021/03/02 05:21:29;;;;;;;38.28;19.33;;;;;;;;;;6295203;28;20052;-77
2021/03/02 05:24:30;;;;;;;30.88;18.55;;;;;;;;;;6300201;28;20123;-77
2021/03/02 05:27:31;;;;;;;39.13;20.00;;;;;;;;;;6284586;28;21030;-77
2021/03/02 05:30:33;;;;;;;40.38;18.42;;;;;;;;;;6293824;28;20632;-77
2021/03/02 05:33:34;;;;;;;33.20;18.45;;;;;;;;;;6295448;28;20151;-77
2021/03/02 05:36:35;;;;;;;38.40;18.35;;;;;;;;;;6293583;28;20087;-76
2021/03/02 05:39:36;;;;;;;36.35;17.90;;;;;;;;;;6292780;28;20131;-77
2021/03/02 05:42:37;;;;;;;28.30;16.73;;;;;;;;;;6291903;28;20124;-76
2021/03/02 05:45:39;;;;;;;31.52;16.92;;;;;;;;;;6294939;28;20045;-76
2021/03/02 05:48:42;;;;;;;36.28;17.73;;;;;;;;;;6299518;28;20063;-76
2021/03/02 05:51:43;;;;;;;33.67;17.00;;;;;;;;;;6291965;28;20613;-76
2021/03/02 05:54:44;;;;;;;29.52;17.55;;;;;;;;;;6296840;28;20179;-76
2021/03/02 05:57:46;;;;;;;39.03;19.17;;;;;;;;;;6294665;28;20566;-76
2021/03/02 06:00:47;;;;;;;36.63;17.67;;;;;;;;;;6297117;28;20070;-76
2021/03/02 06:03:49;;;;;;;40.17;19.40;;;;;;;;;;6294107;28;20135;-76
2021/03/02 06:06:50;;;;;;;41.30;19.38;;;;;;;;;;6298279;28;20052;-76
2021/03/02 06:09:51;;;;;;;41.08;19.73;;;;;;;;;;6294940;28;20074;-76
2021/03/02 06:12:52;;;;;;;37.15;20.02;;;;;;;;;;6295738;28;20135;-77
2021/03/02 06:15:56;;;;;;;39.22;20.73;;;;;;;;;;6295201;28;20079;-76
2021/03/02 06:18:57;;;;;;;38.17;18.70;;;;;;;;;;6292040;28;20494;-77
2021/03/02 06:21:58;;;;;;;36.70;19.85;;;;;;;;;;6292872;28;20136;-76
2021/03/02 06:24:59;;;;;;;31.55;18.77;;;;;;;;;;6294105;28;20075;-77
2021/03/02 06:28:00;;;;;;;33.80;19.20;;;;;;;;;;6293909;28;20086;-75
2021/03/02 06:31:02;;;;;;;35.30;19.70;;;;;;;;;;6286148;28;20044;-76
2021/03/02 06:34:09;;;;;;;37.42;19.95;;;;;;;;;;6294884;28;20976;-75
2021/03/02 06:37:10;;;;;;;29.67;18.08;;;;;;;;;;6296975;28;20131;-77
2021/03/02 06:40:12;;;;;;;37.92;19.60;;;;;;;;;;6297029;28;20049;-77
2021/03/02 06:43:29;;;;;;;35.22;19.20;;;;;;;;;;6290371;28;20044;-75
2021/03/02 06:46:39;;;;;;;36.53;20.42;;;;;;;;;;6293257;28;20128;-77
2021/03/02 06:49:43;;;;;;;35.33;19.08;;;;;;;;;;6291172;28;20075;-74
2021/03/02 06:52:44;;;;;;;40.05;20.88;;;;;;;;;;6291959;28;20072;-75
2021/03/02 06:55:45;;;;;;;42.67;19.42;;;;;;;;;;6287735;28;20171;-75
2021/03/02 06:58:46;;;;;;;45.72;19.80;;;;;;;;;;6295633;28;20128;-77
2021/03/02 07:01:49;;;;;;;37.15;19.23;;;;;;;;;;6297806;28;20040;-79
2021/03/02 07:05:05;;;;;;;43.70;18.85;;;;;;;;;;6292595;28;20072;-75
2021/03/02 07:08:06;;;;;;;33.42;16.65;;;;;;;;;;6294324;28;20044;-76
2021/03/02 07:11:08;;;;;;;25.52;15.93;;;;;;;;;;6290717;28;20080;-75
2021/03/02 07:14:10;;;;;;;30.40;15.27;;;;;;;;;;6295359;28;20046;-76
2021/03/02 07:17:14;;;;;;;29.73;15.80;;;;;;;;;;6295542;28;20047;-76
2021/03/02 07:20:17;;;;;;;29.85;15.23;;;;;;;;;;6295619;28;20156;-75
2021/03/02 07:23:20;;;;;;;31.63;15.20;;;;;;;;;;6290493;28;20048;-75
2021/03/02 07:26:22;;;;;;;25.13;14.90;;;;;;;;;;6293220;28;20492;-75
2021/03/02 07:29:23;;;;;;;29.00;14.40;;;;;;;;;;6293474;28;21209;-75
2021/03/02 07:32:26;;;;;;;28.65;14.50;;;;;;;;;;6290367;28;20216;-76
2021/03/02 07:35:27;;;;;;;30.33;14.52;;;;;;;;;;6295393;28;20059;-75
2021/03/02 07:38:29;;;;;;;35.40;15.30;;;;;;;;;;6288302;28;20535;-74
2021/03/02 07:41:34;;;;;;;29.95;15.90;;;;;;;;;;6291803;28;20052;-75
2021/03/02 07:45:07;;;;;;;33.15;14.27;;;;;;;;;;6282549;28;20091;-76
2021/03/02 07:48:24;;;;;;;24.88;13.05;;;;;;;;;;6289801;28;21025;-76
2021/03/02 07:51:25;;;;;;;27.98;14.23;;;;;;;;;;6292227;28;20487;-76
2021/03/02 07:54:26;;;;;;;31.30;14.63;;;;;;;;;;6295554;28;20524;-76
2021/03/02 07:57:28;;;;;;;21.63;13.20;;;;;;;;;;6286186;28;20521;-76
2021/03/02 08:00:29;;;;;;;22.67;13.75;;;;;;;;;;6289072;28;20075;-76
2021/03/02 08:03:33;;;;;;;24.85;14.57;;;;;;;;;;6289230;28;20052;-78
2021/03/02 08:06:34;;;;;;;26.45;14.38;;;;;;;;;;6293751;28;20052;-81
2021/03/02 08:09:35;;;;;;;30.90;14.82;;;;;;;;;;6289985;28;20131;-77
2021/03/02 08:12:37;;;;;;;27.67;14.70;;;;;;;;;;6287813;28;20099;-75
2021/03/02 08:15:39;;;;;;;29.40;17.02;;;;;;;;;;6291205;28;20072;-77
2021/03/02 08:18:41;;;;;;;25.77;16.13;;;;;;;;;;6287803;28;20423;-78
2021/03/02 08:21:42;;;;;;;31.25;16.35;;;;;;;;;;6286853;28;20064;-80
2021/03/02 08:24:50;;;;;;;32.83;16.05;;;;;;;;;;6290227;28;20074;-76
2021/03/02 08:27:54;;;;;;;33.83;16.23;;;;;;;;;;6287074;28;20057;-74
2021/03/02 08:30:55;;;;;;;30.30;16.30;;;;;;;;;;6283422;28;20041;-74
2021/03/02 08:33:58;;;;;;;26.58;16.55;;;;;;;;;;6286895;28;20120;-71
2021/03/02 08:36:59;;;;;;;31.67;17.53;;;;;;;;;;6281876;28;20155;-74
2021/03/02 08:40:00;;;;;;;31.65;17.58;;;;;;;;;;6286331;28;20048;-72
2021/03/02 08:43:04;;;;;;;30.10;17.25;;;;;;;;;;6282382;28;20530;-74
2021/03/02 08:46:06;;;;;;;28.40;17.33;;;;;;;;;;6286038;28;20128;-73
2021/03/02 08:49:09;;;;;;;26.90;17.27;;;;;;;;;;6286079;28;20089;-72
2021/03/02 08:52:10;;;;;;;32.07;18.17;;;;;;;;;;6289092;28;20127;-72
2021/03/02 08:55:12;;;;;;;32.88;17.75;;;;;;;;;;6291152;28;20068;-73
2021/03/02 08:58:13;;;;;;;26.92;17.15;;;;;;;;;;6291447;28;20041;-73
2021/03/02 09:01:16;;;;;;;31.40;17.73;;;;;;;;;;6286192;28;20053;-74
2021/03/02 09:04:19;;;;;;;26.85;16.95;;;;;;;;;;6289508;28;20671;-75
2021/03/02 09:07:23;;;;;;;26.83;17.97;;;;;;;;;;6289486;28;20048;-73
2021/03/02 09:10:24;;;;;;;29.48;18.05;;;;;;;;;;6290617;28;20063;-74
2021/03/02 09:13:34;;;;;;;31.60;19.02;;;;;;;;;;6290799;28;20128;-77
2021/03/02 09:16:40;;;;;;;28.67;18.42;;;;;;;;;;6294177;28;20517;-75
2021/03/02 09:19:42;;;;;;;32.85;18.27;;;;;;;;;;6290151;28;20155;-74
2021/03/02 09:22:43;;;;;;;31.02;18.25;;;;;;;;;;6291319;28;20051;-75
2021/03/02 09:25:45;;;;;;;31.27;18.17;;;;;;;;;;6286819;28;20235;-76
2021/03/02 09:28:51;;;;;;;29.02;18.98;;;;;;;;;;6287593;28;20148;-76
2021/03/02 09:31:54;;;;;;;26.75;18.92;;;;;;;;;;6292548;28;20048;-75
2021/03/02 09:34:57;;;;;;;30.00;19.02;;;;;;;;;;6293687;28;20185;-77
2021/03/02 09:37:59;;;;;;;26.65;18.17;;;;;;;;;;6297826;28;20140;-76
2021/03/02 09:41:00;;;;;;;30.70;18.15;;;;;;;;;;6297220;28;20131;-77
2021/03/02 09:44:30;;;;;;;27.58;17.58;;;;;;;;;;6296829;28;20055;-76
2021/03/02 09:47:33;;;;;;;31.73;19.30;;;;;;;;;;6300513;28;20479;-77
2021/03/02 09:50:38;;;;;;;27.35;18.27;;;;;;;;;;6305643;28;20063;-77
2021/03/02 09:53:39;;;;;;;29.70;18.95;;;;;;;;;;6299056;28;20378;-77
2021/03/02 09:56:44;;;;;;;30.88;18.20;;;;;;;;;;6297917;28;20129;-76
2021/03/02 09:59:45;;;;;;;30.67;18.00;;;;;;;;;;6294900;28;20550;-77
2021/03/02 10:02:50;;;;;;;27.73;18.05;;;;;;;;;;6293963;28;20086;-77
2021/03/02 10:05:55;;;;;;;30.27;19.25;;;;;;;;;;6293839;28;20178;-77
2021/03/02 10:08:56;;;;;;;23.67;18.08;;;;;;;;;;6291451;28;20121;-76
2021/03/02 10:12:10;;;;;;;27.00;17.80;;;;;;;;;;6296096;28;20136;-77
2021/03/02 10:15:22;;;;;;;28.00;18.65;;;;;;;;;;6295615;28;20601;-78
2021/03/02 10:18:24;;;;;;;26.60;17.83;;;;;;;;;;6298002;28;20520;-79
2021/03/02 10:21:28;;;;;;;24.92;17.67;;;;;;;;;;6296052;28;20131;-78
2021/03/02 10:24:30;;;;;;;26.38;17.65;;;;;;;;;;6297474;28;20127;-79
2021/03/02 10:27:32;;;;;;;26.65;18.80;;;;;;;;;;6294848;28;20059;-78
2021/03/02 10:30:33;;;;;;;24.98;18.15;;;;;;;;;;6298326;28;20515;-79
2021/03/02 10:33:34;;;;;;;27.08;18.33;;;;;;;;;;6296487;28;20053;-78
2021/03/02 10:36:38;;;;;;;27.38;18.52;;;;;;;;;;6296811;28;20503;-78
2021/03/02 10:39:40;;;;;;;26.30;17.98;;;;;;;;;;6297745;28;20514;-78
2021/03/02 10:42:41;;;;;;;24.77;18.60;;;;;;;;;;6296333;28;20040;-79
2021/03/02 10:45:43;;;;;;;27.67;18.40;;;;;;;;;;6296752;28;20123;-79
2021/03/02 10:48:44;;;;;;;27.10;19.08;;;;;;;;;;6297216;28;20451;-79
2021/03/02 10:51:46;;;;;;;26.33;17.85;;;;;;;;;;6296359;28;20506;-76
2021/03/02 10:54:47;;;;;;;26.42;17.83;;;;;;;;;;6296669;28;20083;-75
2021/03/02 10:57:48;;;;;;;24.50;17.58;;;;;;;;;;6298468;28;20098;-75
2021/03/02 11:00:49;;;;;;;25.35;18.23;;;;;;;;;;6297066;28;20554;-75
2021/03/02 11:03:51;;;;;;;24.95;19.30;;;;;;;;;;6293480;28;20174;-75
2021/03/02 11:06:53;;;;;;;26.35;18.40;;;;;;;;;;6295911;28;20056;-75
2021/03/02 11:09:54;;;;;;;26.98;19.83;;;;;;;;;;6294589;28;20139;-75
2021/03/02 11:12:55;;;;;;;27.33;19.60;;;;;;;;;;6289730;28;20445;-75
2021/03/02 11:15:56;;;;;;;28.13;20.80;;;;;;;;;;6297036;28;20120;-79
2021/03/02 11:18:58;;;;;;;29.20;20.77;;;;;;;;;;6294068;28;20453;-75
2021/03/02 11:22:00;;;;;;;28.02;19.75;;;;;;;;;;6291212;28;20064;-75
2021/03/02 11:25:01;;;;;;;24.88;19.55;;;;;;;;;;6293167;28;20037;-75
2021/03/02 11:28:02;;;;;;;24.50;19.60;;;;;;;;;;6289430;28;20080;-77
2021/03/02 11:31:03;;;;;;;25.63;19.90;;;;;;;;;;6281400;28;20080;-76
2021/03/02 11:34:04;;;;;;;26.75;20.58;;;;;;;;;;6284504;28;20104;-76
2021/03/02 11:37:06;;;;;;;25.58;20.27;;;;;;;;;;6287263;28;20640;-76
2021/03/02 11:40:09;;;;;;;25.20;20.70;;;;;;;;;;6286017;28;20108;-75
2021/03/02 11:43:11;;;;;;;25.50;20.23;;;;;;;;;;6282408;28;20071;-75
2021/03/02 11:46:12;;;;;;;24.48;19.40;;;;;;;;;;6287105;28;20055;-75
2021/03/02 11:49:13;;;;;;;25.08;19.48;;;;;;;;;;6289285;28;20127;-75
2021/03/02 11:52:15;;;;;;;27.50;19.45;;;;;;;;;;6288192;28;20657;-73
2021/03/02 11:55:17;;;;;;;26.80;18.80;;;;;;;;;;6284331;28;20076;-73
2021/03/02 11:58:18;;;;;;;24.90;19.57;;;;;;;;;;6282819;28;20135;-74
2021/03/02 12:01:19;;;;;;;25.42;19.45;;;;;;;;;;6284630;28;20051;-77
2021/03/02 12:04:20;;;;;;;26.25;20.10;;;;;;;;;;6289136;28;20089;-75
2021/03/02 12:07:22;;;;;;;25.98;19.73;;;;;;;;;;6283335;28;20036;-77
2021/03/02 12:10:23;;;;;;;27.60;20.35;;;;;;;;;;6288749;28;20543;-76
2021/03/02 12:13:24;;;;;;;28.88;20.33;;;;;;;;;;6287664;28;20045;-75
2021/03/02 12:16:26;;;;;;;27.48;19.65;;;;;;;;;;6285849;28;20494;-78
2021/03/02 12:19:27;;;;;;;27.17;19.60;;;;;;;;;;6287757;28;21716;-79
2021/03/02 12:22:29;;;;;;;23.30;19.10;;;;;;;;;;6274737;28;20139;-79
2021/03/02 12:25:30;;;;;;;23.50;20.33;;;;;;;;;;6263387;28;20091;-79
2021/03/02 12:28:31;;;;;;;22.67;20.17;;;;;;;;;;6283386;28;20052;-78
2021/03/02 12:31:32;;;;;;;24.55;21.27;;;;;;;;;;6291326;28;20087;-75
2021/03/02 12:34:33;;;;;;;25.98;19.48;;;;;;;;;;6295787;28;20123;-77
2021/03/02 12:37:35;;;;;;;23.75;19.50;;;;;;;;;;6296024;28;20076;-76
2021/03/02 12:40:37;;;;;;;26.05;19.80;;;;;;;;;;6298069;28;20062;-75
2021/03/02 12:43:38;;;;;;;28.45;20.27;;;;;;;;;;6297533;28;20428;-72
2021/03/02 12:46:39;;;;;;;26.75;20.08;;;;;;;;;;6288712;28;20562;-75
2021/03/02 12:49:40;;;;;;;31.33;19.90;;;;;;;;;;6289086;28;20127;-74
2021/03/02 12:52:42;;;;;;;31.77;21.25;;;;;;;;;;6299572;28;20135;-72
2021/03/02 12:55:43;;;;;;;26.73;21.95;;;;;;;;;;6286977;28;20578;-73
2021/03/02 12:58:44;;;;;;;28.20;20.17;;;;;;;;;;6292214;28;20110;-75
2021/03/02 13:01:46;;;;;;;29.05;18.67;;;;;;;;;;6287637;28;20060;-75
2021/03/02 13:04:47;;;;;;;21.95;18.80;;;;;;;;;;6292722;28;20483;-75
2021/03/02 13:07:49;;;;;;;25.42;20.10;;;;;;;;;;6290725;28;20119;-76
2021/03/02 13:10:50;;;;;;;24.80;19.58;;;;;;;;;;6289584;28;20131;-75
2021/03/02 13:13:51;;;;;;;27.42;20.15;;;;;;;;;;6286187;28;20131;-75
2021/03/02 13:16:52;;;;;;;25.92;19.38;;;;;;;;;;6285535;28;20167;-76
2021/03/02 13:19:54;;;;;;;25.05;19.30;;;;;;;;;;6286784;28;20139;-76
2021/03/02 13:22:55;;;;;;;27.27;19.70;;;;;;;;;;6290102;28;20044;-76
2021/03/02 13:25:57;;;;;;;24.73;20.25;;;;;;;;;;6283220;28;20131;-76
2021/03/02 13:29:00;;;;;;;24.63;20.30;;;;;;;;;;6287691;28;20048;-76
2021/03/02 13:32:03;;;;;;;28.08;20.95;;;;;;;;;;6287217;28;20140;-76
2021/03/02 13:35:05;;;;;;;;;;;;;;;;;;6284929;28;20535;-76
2021/03/02 13:38:08;;;;;;;25.92;20.50;;;;;;;;;;6287707;28;20005;-77
2021/03/02 13:41:09;;;;;;;;;;;;;;;;;;6291863;28;20430;-76
2021/03/02 13:44:11;;;;;;;27.20;20.10;;;;;;;;;;6280090;28;19925;-76
2021/03/02 13:47:12;;;;;;;25.48;20.35;;;;;;;;;;6285017;28;20052;-76
2021/03/02 13:50:14;;;;;;;26.15;19.80;;;;;;;;;;6286937;28;20070;-77
2021/03/02 13:53:16;;;;;;;23.48;19.70;;;;;;;;;;6281517;28;20056;-77
2021/03/02 13:56:18;;;;;;;24.58;20.27;;;;;;;;;;6282404;28;20098;-77
2021/03/02 13:59:20;;;;;;;26.00;20.90;;;;;;;;;;6286936;28;20040;-76
2021/03/02 14:02:22;;;;;;;24.67;19.77;;;;;;;;;;6282001;28;20053;-76
2021/03/02 14:05:25;;;;;;;25.30;19.65;;;;;;;;;;6284442;28;20175;-76
2021/03/02 14:08:27;;;;;;;22.60;19.08;;;;;;;;;;6287742;28;20189;-76
2021/03/02 14:11:28;;;;;;;26.10;19.77;;;;;;;;;;6282932;28;20048;-76
2021/03/02 14:14:30;;;;;;;26.45;19.83;;;;;;;;;;6279700;28;20431;-76
2021/03/02 14:17:34;;;;;;;25.27;19.98;;;;;;;;;;6277797;28;20052;-76
2021/03/02 14:20:35;;;;;;;24.25;20.17;;;;;;;;;;6279598;28;20459;-76
2021/03/02 14:23:38;;;;;;;22.77;18.30;;;;;;;;;;6275282;28;20132;-76
2021/03/02 14:26:39;;;;;;;;;;;;;;;;;;6279598;28;20372;-76
2021/03/02 14:29:40;;;;;;;26.98;18.75;;;;;;;;;;6276714;28;19928;-76
2021/03/02 14:32:42;;;;;;;21.52;18.17;;;;;;;;;;6276986;28;20146;-76
2021/03/02 14:35:43;;;;;;;23.55;18.63;;;;;;;;;;6275950;28;20790;-75
2021/03/02 14:38:45;;;;;;;23.08;19.52;;;;;;;;;;6279654;28;20403;-76
2021/03/02 14:41:51;;;;;;;22.25;18.90;;;;;;;;;;6277990;28;20084;-76
2021/03/02 14:44:57;;;;;;;23.50;18.73;;;;;;;;;;6270028;28;20094;-76
2021/03/02 14:47:59;;;;;;;22.20;18.88;;;;;;;;;;6282953;28;20143;-74
2021/03/02 14:51:01;;;;;;;24.52;19.48;;;;;;;;;;6283990;28;20101;-76
2021/03/02 14:54:03;;;;;;;21.95;18.17;;;;;;;;;;6276677;28;20355;-75
2021/03/02 14:57:04;;;;;;;20.88;17.77;;;;;;;;;;6281053;28;20143;-76
2021/03/02 15:00:08;;;;;;;21.48;18.00;;;;;;;;;;6279828;28;20167;-76
2021/03/02 15:03:09;;;;;;;23.33;18.67;;;;;;;;;;6279112;28;20136;-77
2021/03/02 15:06:11;;;;;;;23.17;18.63;;;;;;;;;;6285120;28;20090;-78
2021/03/02 15:09:13;;;;;;;24.33;18.42;;;;;;;;;;6291067;28;20048;-76
2021/03/02 15:12:14;;;;;;;24.45;18.08;;;;;;;;;;6286350;28;20048;-76
2021/03/02 15:15:16;;;;;;;20.65;18.00;;;;;;;;;;6289515;28;20064;-75
2021/03/02 15:18:17;;;;;;;21.27;17.67;;;;;;;;;;6286670;28;20083;-75
2021/03/02 15:21:18;;;;;;;23.40;18.10;;;;;;;;;;6286104;28;20080;-75
2021/03/02 15:24:21;;;;;;;25.35;18.52;;;;;;;;;;6286935;28;20063;-75
2021/03/02 15:27:22;;;;;;;23.75;18.75;;;;;;;;;;6290395;28;20079;-75
2021/03/02 15:30:24;;;;;;;25.20;19.05;;;;;;;;;;6284463;28;20495;-75
2021/03/02 15:33:26;;;;;;;25.63;18.30;;;;;;;;;;6285111;28;20124;-75
2021/03/02 15:36:27;;;;;;;21.33;17.92;;;;;;;;;;6285067;28;20152;-76
2021/03/02 15:39:30;;;;;;;23.27;17.42;;;;;;;;;;6283345;28;20129;-75
2021/03/02 15:42:31;;;;;;;23.48;18.15;;;;;;;;;;6280606;28;20059;-74
2021/03/02 15:45:33;;;;;;;22.85;18.08;;;;;;;;;;6281789;28;20080;-77
2021/03/02 15:48:34;;;;;;;26.10;18.75;;;;;;;;;;6282016;28;20409;-75
2021/03/02 15:51:36;;;;;;;22.02;18.67;;;;;;;;;;6287676;28;20057;-77
2021/03/02 15:54:38;;;;;;;22.83;18.13;;;;;;;;;;6288207;28;20404;-75
2021/03/02 15:57:40;;;;;;;27.95;18.20;;;;;;;;;;6282755;28;20052;-75
2021/03/02 16:00:41;;;;;;;25.63;18.55;;;;;;;;;;6282319;28;20072;-78
2021/03/02 16:03:46;;;;;;;24.92;19.50;;;;;;;;;;6285385;28;20056;-75
2021/03/02 16:06:55;;;;;;;24.63;18.55;;;;;;;;;;6285953;28;20113;-75
2021/03/02 16:10:03;;;;;;;27.88;19.30;;;;;;;;;;6294126;28;20684;-76
2021/03/02 16:13:05;;;;;;;25.52;19.20;;;;;;;;;;6295565;28;20055;-74
2021/03/02 16:16:10;;;;;;;25.25;19.00;;;;;;;;;;6290284;28;20139;-75
2021/03/02 16:19:12;;;;;;;24.27;19.15;;;;;;;;;;6290571;28;20521;-74
2021/03/02 16:22:14;;;;;;;24.02;18.70;;;;;;;;;;6292059;28;20054;-74
2021/03/02 16:25:17;;;;;;;22.73;19.00;;;;;;;;;;6281382;28;20044;-73
2021/03/02 16:28:20;;;;;;;23.80;18.15;;;;;;;;;;6287135;28;20064;-74
2021/03/02 16:31:22;;;;;;;27.85;19.27;;;;;;;;;;6282827;28;20086;-74
2021/03/02 16:34:25;;;;;;;26.60;18.83;;;;;;;;;;6286587;28;20527;-74
2021/03/02 16:37:27;;;;;;;25.65;18.25;;;;;;;;;;6282128;28;20899;-75
2021/03/02 16:40:30;;;;;;;28.93;19.60;;;;;;;;;;6287401;28;20106;-74
2021/03/02 16:43:31;;;;;;;27.40;18.20;;;;;;;;;;6288179;28;20106;-74
2021/03/02 16:46:36;;;;;;;24.92;18.00;;;;;;;;;;6285282;28;20459;-75
2021/03/02 16:49:37;;;;;;;26.65;17.80;;;;;;;;;;6286513;28;20060;-74
2021/03/02 16:52:43;;;;;;;24.08;17.80;;;;;;;;;;6288977;28;20128;-73
2021/03/02 16:55:47;;;;;;;25.02;17.50;;;;;;;;;;6287676;28;20150;-74
2021/03/02 16:58:49;;;;;;;26.05;17.10;;;;;;;;;;6291814;28;20459;-73
2021/03/02 17:01:53;;;;;;;26.70;17.15;;;;;;;;;;6289964;28;20068;-75
2021/03/02 17:04:54;;;;;;;26.08;17.75;;;;;;;;;;6294944;28;20075;-74
2021/03/02 17:07:57;;;;;;;25.15;16.88;;;;;;;;;;6296411;28;20095;-75
2021/03/02 17:11:00;;;;;;;24.17;17.50;;;;;;;;;;6295932;28;20135;-76
2021/03/02 17:14:01;;;;;;;27.00;18.13;;;;;;;;;;6294735;28;20071;-75
2021/03/02 17:17:02;;;;;;;25.00;17.15;;;;;;;;;;6297598;28;20083;-75
2021/03/02 17:20:04;;;;;;;30.50;17.85;;;;;;;;;;6288439;28;20142;-75
2021/03/02 17:23:05;;;;;;;27.10;16.40;;;;;;;;;;6291652;28;20075;-75
2021/03/02 17:26:07;;;;;;;23.38;17.00;;;;;;;;;;6296163;28;20044;-75
2021/03/02 17:29:09;;;;;;;27.83;17.50;;;;;;;;;;6293630;28;20099;-75
2021/03/02 17:32:10;;;;;;;24.73;17.05;;;;;;;;;;6293704;28;20457;-76
2021/03/02 17:35:12;;;;;;;25.58;17.58;;;;;;;;;;6293593;28;20055;-77
2021/03/02 17:38:13;;;;;;;26.63;16.55;;;;;;;;;;6292850;28;20094;-75
2021/03/02 17:41:15;;;;;;;28.48;17.45;;;;;;;;;;6293238;28;22153;-75
2021/03/02 17:44:16;;;;;;;24.35;17.00;;;;;;;;;;6295067;28;20131;-75